Time;durP1;ratioP1;P1;durP2;ratioP2;P2;SDS_P1;SDS_P2;PMS_P1;PMS_P2;Temp;Humidity;BMP_temperature;BMP_pressure;BME280_temperature;BME280_humidity;BME280_pressure;Samples;Min_cycle;Max_cycle;Signal;HPM_P1;HPM_P2
2021/08/13 00:03:20;;;;;;;;;;;21.60;99.90;;;20.74;89.02;96067.00;10484537;28;2253;-79
2021/08/13 00:08:24;;;;;;;;;;;21.60;99.90;;;20.70;88.45;96059.78;10499403;28;2316;-80
2021/08/13 00:13:26;;;;;;;;;;;21.60;99.90;;;20.69;88.16;96058.19;10502195;28;2378;-79
2021/08/13 00:18:29;;;;;;;;;;;21.60;99.90;;;20.56;88.60;96061.97;10501570;28;2307;-79
2021/08/13 00:23:32;;;;;;;;;;;21.50;99.90;;;20.47;88.63;96056.53;10502929;28;2242;-81
2021/08/13 00:28:34;;;;;;;;;;;21.50;99.90;;;20.40;89.01;96061.69;10501163;28;2031;-80
2021/08/13 00:33:37;;;;;;;;;;;21.40;99.90;;;20.28;89.84;96058.84;10501552;28;2356;-81
2021/08/13 00:38:40;;;;;;;;;;;21.30;99.90;;;20.24;89.72;96069.66;10500994;28;2333;-80
2021/08/13 00:43:43;;;;;;;;;;;21.20;99.90;;;20.22;89.34;96067.22;10497679;28;2383;-80
2021/08/13 00:48:45;;;;;;;;;;;21.20;99.90;;;20.27;88.76;96063.53;10494246;28;2347;-81
2021/08/13 00:53:48;;;;;;;;;;;21.20;99.90;;;20.26;88.77;96045.53;10484690;28;2697;-81
2021/08/13 00:58:51;;;;;;;;;;;21.20;99.90;;;20.23;87.84;96068.03;10491129;28;2352;-80
2021/08/13 01:03:53;;;;;;;;;;;21.20;99.90;;;20.32;86.84;96057.88;10497389;28;2331;-80
2021/08/13 01:08:56;;;;;;;;;;;21.20;99.90;;;20.33;86.27;96062.19;10485847;28;2275;-81
2021/08/13 01:13:59;;;;;;;;;;;21.20;99.90;;;20.28;86.21;96075.22;10503574;28;2225;-81
2021/08/13 01:19:21;;;;;;;;;;;21.20;99.90;;;20.60;83.98;96090.19;10508249;28;2249;-80
2021/08/13 01:24:25;;;;;;;;;;;21.30;99.90;;;20.56;83.76;96092.00;10485725;28;2296;-81
2021/08/13 01:29:27;;;;;;;;;;;21.40;99.90;;;20.47;84.42;96120.13;10511045;28;2427;-81
2021/08/13 01:34:30;;;;;;;;;;;21.40;99.90;;;20.37;85.19;96133.34;10503895;28;2522;-80
2021/08/13 01:39:33;;;;;;;;;;;21.30;99.90;;;20.19;86.02;96127.94;10486726;28;2423;-80
2021/08/13 01:44:35;;;;;;;;;;;21.20;99.90;;;20.08;85.97;96131.34;10502967;28;2205;-81
2021/08/13 01:49:38;;;;;;;;;;;21.10;99.90;;;19.88;87.40;96127.38;10506456;28;2194;-79
2021/08/13 01:54:41;;;;;;;;;;;21.00;99.90;;;19.79;88.34;96119.22;10503015;28;2383;-80
2021/08/13 01:59:44;;;;;;;;;;;20.90;99.90;;;19.79;88.33;96129.34;10506134;28;2399;-80
2021/08/13 02:04:46;;;;;;;;;;;20.80;99.90;;;19.79;88.37;96130.13;10509742;28;2694;-78
2021/08/13 02:09:49;;;;;;;;;;;20.80;99.90;;;19.74;88.91;96146.66;10508776;28;2412;-79
2021/08/13 02:14:52;;;;;;;;;;;20.70;99.90;;;19.68;89.21;96143.31;10492475;28;2486;-81
2021/08/13 02:19:55;;;;;;;;;;;20.70;99.90;;;19.59;90.06;96141.69;10503231;28;2332;-79
2021/08/13 02:24:57;;;;;;;;;;;20.60;99.90;;;19.67;89.77;96155.34;10521231;28;2351;-79
2021/08/13 02:30:00;;;;;;;;;;;20.60;99.90;;;19.66;90.06;96152.94;10494383;28;2454;-80
2021/08/13 02:35:03;;;;;;;;;;;20.60;99.90;;;19.55;91.35;96146.19;10511595;28;2752;-80
2021/08/13 02:40:05;;;;;;;;;;;20.60;99.90;;;19.41;91.90;96146.34;10501252;28;2476;-79
2021/08/13 02:45:08;;;;;;;;;;;20.50;99.90;;;19.31;91.99;96138.47;10513775;28;2427;-78
2021/08/13 02:50:11;;;;;;;;;;;20.40;99.90;;;19.20;92.66;96129.81;10496345;28;2625;-80
2021/08/13 02:55:14;;;;;;;;;;;20.30;99.90;;;19.15;93.33;96138.16;10507246;28;2311;-80
2021/08/13 03:00:16;;;;;;;;;;;20.20;99.90;;;19.07;93.69;96147.09;10501053;28;2459;-80
2021/08/13 03:05:19;;;;;;;;;;;20.20;99.90;;;19.05;94.03;96149.34;10503478;28;2438;-80
2021/08/13 03:10:22;;;;;;;;;;;20.10;99.90;;;19.00;94.76;96144.06;10508866;28;2451;-80
2021/08/13 03:15:25;;;;;;;;;;;20.10;99.90;;;19.05;94.15;96154.81;10487681;28;2448;-79
2021/08/13 03:20:28;;;;;;;;;;;20.00;99.90;;;19.13;93.80;96151.28;10509520;28;2382;-80
2021/08/13 03:25:30;;;;;;;;;;;20.10;99.90;;;19.04;93.72;96155.94;10493603;28;2488;-80
2021/08/13 03:30:33;;;;;;;;;;;20.00;99.90;;;19.10;92.14;96157.38;10498372;28;2598;-80
2021/08/13 03:35:36;;;;;;;;;;;20.10;99.90;;;19.05;92.64;96155.59;10497915;28;2637;-79
2021/08/13 03:40:38;;;;;;;;;;;20.00;99.90;;;19.13;91.85;96159.47;10510964;28;2429;-80
2021/08/13 03:45:41;;;;;;;;;;;20.10;99.90;;;19.05;92.01;96154.81;10528686;28;2431;-80
2021/08/13 03:50:44;;;;;;;;;;;20.00;99.90;;;19.16;90.94;96150.66;10524438;28;2615;-80
2021/08/13 03:55:46;;;;;;;;;;;20.00;99.90;;;19.12;90.45;96157.84;10521392;28;2424;-80
2021/08/13 04:00:49;;;;;;;;;;;20.00;99.90;;;19.26;90.38;96154.97;10522538;28;2538;-80
2021/08/13 04:05:52;;;;;;;;;;;20.10;99.90;;;19.36;88.92;96168.31;10507698;28;2515;-78
2021/08/13 04:10:55;;;;;;;;;;;20.20;99.90;;;19.45;87.74;96163.66;10517111;28;2358;-80
2021/08/13 04:16:16;;;;;;;;;;;20.30;99.90;;;19.57;86.55;96171.19;10522994;28;2451;-79
2021/08/13 04:21:38;;;;;;;;;;;20.40;99.90;;;19.68;85.56;96173.31;10527478;28;2499;-78
2021/08/13 04:26:47;;;;;;;;;;;20.50;99.90;;;19.81;85.04;96178.91;10503598;28;2442;-79
2021/08/13 04:32:09;;;;;;;;;;;20.60;99.90;;;19.84;83.62;96179.06;10515381;28;2484;-78
2021/08/13 04:37:32;;;;;;;;;;;20.70;99.90;;;19.95;83.25;96188.50;10523498;28;2546;-79
2021/08/13 04:42:56;;;;;;;;;;;20.70;99.90;;;20.10;82.59;96186.38;10513004;28;2408;-81
2021/08/13 04:48:18;;;;;;;;;;;20.80;99.90;;;20.40;81.35;96188.09;10515749;28;2566;-80
2021/08/13 04:53:21;;;;;;;;;;;21.00;99.90;;;20.64;80.15;96187.53;10522860;28;2451;-80
2021/08/13 04:58:24;;;;;;;;;;;21.20;99.90;;;20.96;78.03;96198.97;10507237;28;2455;-80
2021/08/13 05:03:27;;;;;;;;;;;21.50;99.90;;;21.32;76.45;96184.78;10492847;28;2585;-80
2021/08/13 05:08:30;;;;;;;;;;;21.80;99.90;;;21.48;75.62;96188.53;10510053;28;2547;-82
2021/08/13 05:13:38;;;;;;;;;;;22.10;99.90;;;21.76;73.83;96191.53;10498282;28;2471;-80
2021/08/13 05:18:44;;;;;;;;;;;22.30;99.90;;;21.86;73.24;96188.38;10509960;28;2541;-80
2021/08/13 05:23:46;;;;;;;;;;;22.40;99.90;;;22.13;71.47;96195.22;10500938;28;2436;-79
2021/08/13 05:28:49;;;;;;;;;;;22.60;99.90;;;22.64;69.59;96182.09;10509721;28;2674;-79
2021/08/13 05:33:52;;;;;;;;;;;22.90;99.90;;;22.71;70.29;96197.16;10510635;28;2523;-80
2021/08/13 05:38:58;;;;;;;;;;;23.30;99.90;;;22.26;76.39;96222.66;10504594;28;2683;-79
2021/08/13 05:44:00;;;;;;;;;;;23.30;99.90;;;21.70;81.00;96230.38;10499443;28;2514;-79
2021/08/13 05:49:10;;;;;;;;;;;22.90;99.90;;;21.52;81.19;96213.28;10511659;28;2372;-79
2021/08/13 05:54:13;;;;;;;;;;;22.60;99.90;;;21.56;80.48;96211.47;10504674;28;2595;-78
2021/08/13 05:59:20;;;;;;;;;;;22.40;99.90;;;21.78;79.41;96251.41;10498597;28;2537;-78
2021/08/13 06:04:23;;;;;;;;;;;22.50;99.90;;;21.94;78.26;96243.38;10501832;28;2557;-78
2021/08/13 06:09:26;;;;;;;;;;;22.60;99.90;;;22.09;75.64;96240.84;10500179;28;2655;-79
2021/08/13 06:14:29;;;;;;;;;;;22.80;99.90;;;21.92;75.27;96235.50;10484828;28;2358;-79
2021/08/13 06:19:32;;;;;;;;;;;22.70;99.90;;;21.65;73.15;96247.78;10498821;28;2256;-78
2021/08/13 06:24:35;;;;;;;;;;;22.60;99.90;;;21.63;70.82;96236.38;10483481;28;2330;-78
2021/08/13 06:29:38;;;;;;;;;;;22.50;99.90;;;21.56;69.55;96225.94;10496680;28;2399;-77
2021/08/13 06:34:40;;;;;;;;;;;22.40;99.90;;;21.60;68.57;96234.31;10504194;28;2431;-79
2021/08/13 06:39:43;;;;;;;;;;;22.40;99.90;;;21.78;67.96;96248.66;10480612;28;2385;-78
2021/08/13 06:44:46;;;;;;;;;;;22.40;99.90;;;22.29;65.35;96252.09;10494972;28;2308;-77
2021/08/13 06:49:48;;;;;;;;;;;22.80;99.90;;;23.35;63.18;96257.66;10499737;28;2724;-76
2021/08/13 06:54:51;;;;;;;;;;;23.40;99.90;;;24.27;58.85;96270.63;10473658;28;2419;-77
2021/08/13 06:59:54;;;;;;;;;;;24.10;99.90;;;24.86;58.72;96273.78;10470622;28;2339;-78
2021/08/13 07:04:56;;;;;;;;;;;24.80;99.90;;;25.29;56.61;96276.47;10502994;28;2367;-79
2021/08/13 07:09:59;;;;;;;;;;;25.50;99.90;;;25.83;56.45;96269.47;10504753;28;2559;-78
2021/08/13 07:15:02;;;;;;;;;;;25.90;99.90;;;25.93;56.29;96268.13;10499080;28;2320;-78
2021/08/13 07:20:05;;;;;;;;;;;26.10;99.90;;;25.91;56.37;96273.19;10482262;28;2254;-78
2021/08/13 07:25:07;;;;;;;;;;;26.30;99.90;;;26.28;55.71;96279.91;10495470;28;2309;-78
2021/08/13 07:30:10;;;;;;;;;;;26.50;99.90;;;26.28;54.94;96287.38;10505336;28;2377;-80
2021/08/13 07:35:13;;;;;;;;;;;26.70;99.90;;;26.36;55.68;96295.41;10499752;28;2213;-77
2021/08/13 07:40:16;;;;;;;;;;;26.80;99.90;;;26.80;54.97;96292.34;10495703;28;2484;-77
2021/08/13 07:45:18;;;;;;;;;;;27.00;99.90;;;26.89;53.71;96292.09;10515763;28;2237;-78
2021/08/13 07:50:21;;;;;;;;;;;27.30;99.90;;;27.25;53.13;96290.78;10509280;28;2245;-77
2021/08/13 07:55:30;;;;;;;;;;;27.50;99.90;;;27.30;53.50;96284.97;10494725;28;2376;-79
2021/08/13 08:00:32;;;;;;;;;;;27.70;99.90;;;27.35;53.41;96283.84;10470722;28;2348;-78
2021/08/13 08:05:35;;;;;;;;;;;27.80;99.90;;;27.42;52.68;96289.47;10493474;28;2300;-77
2021/08/13 08:10:38;;;;;;;;;;;27.90;99.90;;;27.70;50.44;96289.94;10488739;28;2304;-78
2021/08/13 08:15:41;;;;;;;;;;;28.00;99.90;;;27.89;50.36;96286.28;10490156;28;2333;-79
2021/08/13 08:20:43;;;;;;;;;;;28.20;99.90;;;28.04;49.87;96283.69;10499160;28;2312;-79
2021/08/13 08:25:46;;;;;;;;;;;28.30;99.90;;;28.12;48.84;96290.91;10487935;28;2341;-77
2021/08/13 08:30:49;;;;;;;;;;;28.60;99.90;;;28.20;49.30;96289.84;10481776;28;2329;-78
2021/08/13 08:35:52;;;;;;;;;;;28.60;99.90;;;28.51;49.64;96300.53;10503893;28;2729;-78
2021/08/13 08:40:55;;;;;;;;;;;28.90;99.90;;;28.54;48.73;96299.78;10506732;28;2424;-78
2021/08/13 08:45:58;;;;;;;;;;;28.90;99.90;;;28.71;48.11;96309.47;10497554;28;2384;-79
2021/08/13 08:51:01;;;;;;;;;;;29.20;99.90;;;28.32;49.73;96309.00;10478950;28;2694;-78
2021/08/13 08:56:04;;;;;;;;;;;29.00;99.90;;;28.96;47.37;96298.69;10491965;28;3177;-78
2021/08/13 09:01:07;;;;;;;;;;;29.10;99.90;;;29.05;46.80;96293.63;10491029;28;2412;-78
2021/08/13 09:06:10;;;;;;;;;;;29.30;99.90;;;29.32;45.43;96304.53;10502626;28;2860;-79
2021/08/13 09:11:12;;;;;;;;;;;29.60;99.90;;;29.04;44.87;96299.53;10500251;28;2343;-80
2021/08/13 09:16:15;;;;;;;;;;;29.70;99.90;;;29.25;44.83;96293.41;10498536;28;2325;-78
2021/08/13 09:21:18;;;;;;;;;;;29.70;99.90;;;29.20;45.24;96296.50;10500318;28;2522;-77
2021/08/13 09:26:21;;;;;;;;;;;29.60;99.90;;;29.23;44.06;96306.84;10513521;28;2320;-78
2021/08/13 09:31:26;;;;;;;;;;;29.70;99.90;;;29.52;43.63;96297.63;10504132;28;2446;-78
2021/08/13 09:36:32;;;;;;;;;;;29.80;99.90;;;29.72;42.54;96308.47;10512301;28;2282;-78
2021/08/13 09:41:35;;;;;;;;;;;29.90;99.90;;;30.23;41.27;96294.53;10524729;28;2484;-79
2021/08/13 09:46:38;;;;;;;;;;;30.20;99.90;;;30.26;40.35;96292.97;10524924;28;2372;-77
2021/08/13 09:51:41;;;;;;;;;;;30.60;99.90;;;29.79;41.66;96287.13;10508010;28;2410;-77
2021/08/13 09:56:43;;;;;;;;;;;30.60;99.90;;;30.28;40.15;96279.50;10508126;28;3166;-79
2021/08/13 10:01:46;;;;;;;;;;;30.60;99.90;;;30.30;40.44;96277.94;10497895;28;2419;-79
2021/08/13 10:06:49;;;;;;;;;;;30.80;99.90;;;30.38;37.95;96284.31;10493714;28;2296;-79
2021/08/13 10:11:52;;;;;;;;;;;30.80;99.90;;;30.55;39.52;96291.91;10479916;28;2690;-79
2021/08/13 10:16:54;;;;;;;;;;;31.00;99.90;;;30.31;38.06;96298.94;10499485;28;2489;-78
2021/08/13 10:21:57;;;;;;;;;;;31.00;99.60;;;30.43;36.45;96286.69;10501354;28;2360;-79
2021/08/13 10:27:00;;;;;;;;;;;31.00;97.70;;;30.45;37.21;96287.09;10495362;28;2325;-79
2021/08/13 10:32:03;;;;;;;;;;;31.00;97.40;;;30.49;37.86;96281.56;10504557;28;2471;-78
2021/08/13 10:37:05;;;;;;;;;;;31.10;98.20;;;30.74;37.98;96278.91;10478563;28;2392;-78
2021/08/13 10:42:08;;;;;;;;;;;31.30;97.30;;;30.81;39.21;96276.94;10497285;28;2355;-79
2021/08/13 10:47:11;;;;;;;;;;;31.50;98.50;;;30.49;37.71;96265.72;10483105;28;2422;-78
2021/08/13 10:52:14;;;;;;;;;;;31.20;96.00;;;30.45;38.37;96269.66;10479482;28;2312;-78
2021/08/13 10:57:17;;;;;;;;;;;31.00;96.80;;;30.30;39.84;96266.06;10487983;28;3183;-79
2021/08/13 11:02:20;;;;;;;;;;;31.00;97.90;;;30.47;39.50;96264.50;10490614;28;2287;-78
2021/08/13 11:07:23;;;;;;;;;;;31.10;98.00;;;30.47;38.94;96262.53;10502346;28;2430;-79
2021/08/13 11:12:26;;;;;;;;;;;31.20;96.00;;;31.25;38.05;96261.16;10480398;28;2329;-80
2021/08/13 11:17:29;;;;;;;;;;;32.10;96.50;;;31.94;36.53;96258.72;10473744;28;2333;-79
2021/08/13 11:22:34;;;;;;;;;;;33.10;94.10;;;31.69;36.43;96250.41;10499413;28;2384;-79
2021/08/13 11:27:37;;;;;;;;;;;32.90;91.50;;;31.04;37.29;96246.03;10480657;28;2393;-80
2021/08/13 11:32:40;;;;;;;;;;;32.10;91.40;;;31.32;37.54;96238.94;10502550;28;2362;-80
2021/08/13 11:37:44;;;;;;;;;;;32.00;93.20;;;31.26;37.92;96237.75;10485117;28;2348;-79
2021/08/13 11:42:47;;;;;;;;;;;31.90;92.60;;;31.56;37.08;96235.34;10492477;28;2351;-79
2021/08/13 11:47:51;;;;;;;;;;;32.00;92.80;;;31.60;35.74;96233.34;10506204;28;2252;-79
2021/08/13 11:52:54;;;;;;;;;;;32.20;90.60;;;31.62;35.38;96230.16;10498798;28;2260;-81
2021/08/13 11:57:56;;;;;;;;;;;32.30;89.10;;;31.12;34.76;96230.19;10499495;28;3266;-80
2021/08/13 12:02:59;;;;;;;;;;;32.00;86.90;;;31.28;36.44;96227.03;10504095;28;2363;-79
2021/08/13 12:08:06;;;;;;;;;;;32.00;88.70;;;31.68;33.15;96212.72;10502557;28;2281;-80
2021/08/13 12:13:08;;;;;;;;;;;32.20;85.20;;;31.62;33.26;96224.59;10479921;28;2312;-78
2021/08/13 12:18:11;;;;;;;;;;;32.30;83.40;;;31.55;33.09;96225.41;10482074;28;2304;-78
2021/08/13 12:23:14;;;;;;;;;;;32.30;83.50;;;31.56;33.29;96224.25;10496862;28;2281;-78
2021/08/13 12:28:16;;;;;;;;;;;32.30;83.10;;;31.65;31.40;96230.16;10509117;28;2398;-80
2021/08/13 12:33:19;;;;;;;;;;;32.20;81.00;;;31.86;31.91;96231.34;10510623;28;2391;-79
2021/08/13 12:38:22;;;;;;;;;;;32.40;80.20;;;31.82;31.27;96228.59;10501871;28;2332;-77
2021/08/13 12:43:25;;;;;;;;;;;32.40;79.40;;;32.05;30.88;96238.44;10497572;28;2257;-77
2021/08/13 12:48:27;;;;;;;;;;;32.60;78.60;;;31.59;31.73;96239.31;10499897;28;2418;-78
2021/08/13 12:53:30;;;;;;;;;;;32.40;78.80;;;31.41;30.78;96236.53;10502662;28;2328;-77
2021/08/13 12:58:33;;;;;;;;;;;32.20;77.10;;;31.42;31.82;96221.47;10492284;28;3167;-79
2021/08/13 13:03:35;;;;;;;;;;;32.10;78.30;;;31.38;32.19;96220.69;10477898;28;2367;-77
2021/08/13 13:08:38;;;;;;;;;;;32.10;79.10;;;31.62;31.16;96211.53;10480243;28;2445;-78
2021/08/13 13:13:41;;;;;;;;;;;32.20;77.80;;;31.77;31.50;96209.50;10499040;28;2253;-78
2021/08/13 13:18:44;;;;;;;;;;;32.30;77.60;;;31.67;31.36;96199.97;10489092;28;2507;-78
2021/08/13 13:23:47;;;;;;;;;;;32.40;76.70;;;31.90;30.73;96207.91;10508804;28;2219;-78
2021/08/13 13:28:49;;;;;;;;;;;32.40;76.50;;;31.64;30.56;96188.88;10505183;28;2392;-76
2021/08/13 13:33:52;;;;;;;;;;;32.40;75.80;;;31.80;30.61;96191.25;10505212;28;2415;-77
2021/08/13 13:38:55;;;;;;;;;;;32.40;75.70;;;31.50;31.80;96194.50;10503538;28;2178;-78
2021/08/13 13:43:57;;;;;;;;;;;32.30;76.70;;;31.28;32.63;96190.94;10483894;28;2355;-77
2021/08/13 13:49:00;;;;;;;;;;;32.10;77.10;;;31.43;30.94;96175.84;10502485;28;2288;-78
2021/08/13 13:54:03;;;;;;;;;;;32.00;75.50;;;31.28;31.72;96177.03;10507313;28;2298;-79
2021/08/13 13:59:05;;;;;;;;;;;32.00;75.90;;;31.67;30.61;96177.75;10506664;28;2333;-78
2021/08/13 14:04:08;;;;;;;;;;;32.20;75.20;;;31.96;29.16;96166.56;10509341;28;2375;-79
2021/08/13 14:09:11;;;;;;;;;;;32.40;73.50;;;32.34;29.67;96172.38;10474220;28;2445;-79
2021/08/13 14:14:14;;;;;;;;;;;32.70;73.70;;;32.00;29.69;96168.16;10478294;28;2022;-79
2021/08/13 14:19:16;;;;;;;;;;;32.70;72.40;;;31.86;31.38;96165.41;10496400;28;2273;-78
2021/08/13 14:24:19;;;;;;;;;;;32.60;74.10;;;31.75;32.38;96157.09;10514213;28;2431;-79
2021/08/13 14:29:24;;;;;;;;;;;32.60;75.10;;;31.74;31.14;96161.03;10496982;28;2218;-79
2021/08/13 14:34:27;;;;;;;;;;;32.40;74.10;;;31.86;31.34;96156.28;10510106;28;2344;-79
2021/08/13 14:39:29;;;;;;;;;;;32.40;74.40;;;32.36;30.67;96150.50;10511085;28;2289;-79
2021/08/13 14:44:32;;;;;;;;;;;32.70;74.30;;;31.99;31.87;96143.50;10500245;28;2317;-79
2021/08/13 14:49:35;;;;;;;;;;;32.80;74.60;;;32.12;31.92;96144.63;10495338;28;2308;-79
2021/08/13 14:54:38;;;;;;;;;;;32.80;74.60;;;31.78;32.27;96143.59;10488060;28;3115;-78
2021/08/13 14:59:40;;;;;;;;;;;32.60;74.80;;;31.46;33.10;96133.38;10472449;28;2284;-79
2021/08/13 15:04:43;;;;;;;;;;;32.40;75.00;;;31.71;32.07;96136.84;10480484;28;2352;-79
2021/08/13 15:09:46;;;;;;;;;;;32.40;74.10;;;31.94;32.16;96133.63;10496040;28;2308;-78
2021/08/13 15:14:48;;;;;;;;;;;32.50;74.40;;;31.47;32.92;96146.06;10502417;28;2216;-79
2021/08/13 15:19:51;;;;;;;;;;;32.30;75.20;;;31.60;32.89;96141.66;10521391;28;2277;-77
2021/08/13 15:24:54;;;;;;;;;;;32.30;75.50;;;31.54;32.59;96140.47;10502244;28;2404;-79
2021/08/13 15:29:56;;;;;;;;;;;32.10;75.10;;;31.51;32.83;96152.41;10491237;28;2325;-79
2021/08/13 15:34:59;;;;;;;;;;;32.20;75.10;;;31.45;32.52;96148.44;10488632;28;2403;-78
2021/08/13 15:40:02;;;;;;;;;;;32.10;75.00;;;30.89;33.24;96150.06;10486444;28;2337;-79
2021/08/13 15:45:04;;;;;;;;;;;31.90;74.00;;;30.97;33.69;96139.75;10474198;28;2254;-78
2021/08/13 15:50:07;;;;;;;;;;;31.80;74.90;;;30.71;34.47;96138.94;10487535;28;2335;-79
2021/08/13 15:55:10;;;;;;;;;;;31.70;75.50;;;30.72;33.94;96128.66;10504264;28;3064;-78
2021/08/13 16:00:12;;;;;;;;;;;31.60;75.50;;;30.74;34.52;96137.38;10505137;28;2385;-79
2021/08/13 16:05:15;;;;;;;;;;;31.50;75.70;;;30.50;35.48;96142.47;10516662;28;2311;-80
2021/08/13 16:10:18;;;;;;;;;;;31.30;76.90;;;30.35;36.10;96138.91;10497336;28;2360;-78
2021/08/13 16:15:20;;;;;;;;;;;31.20;77.80;;;30.37;35.78;96141.28;10485453;28;2305;-79
2021/08/13 16:20:24;;;;;;;;;;;31.10;77.90;;;30.18;36.12;96141.63;10500649;28;2315;-78
2021/08/13 16:25:26;;;;;;;;;;;31.00;78.00;;;30.13;36.66;96142.78;10498476;28;2430;-79
2021/08/13 16:30:29;;;;;;;;;;;31.00;78.80;;;29.99;37.92;96148.28;10479728;28;2274;-78
2021/08/13 16:35:32;;;;;;;;;;;30.80;79.40;;;29.81;37.97;96143.44;10488745;28;2338;-78
2021/08/13 16:40:35;;;;;;;;;;;30.70;79.80;;;29.53;38.44;96146.88;10507471;28;2271;-78
2021/08/13 16:45:37;;;;;;;;;;;30.40;80.20;;;29.50;38.86;96147.63;10483647;28;2378;-79
2021/08/13 16:50:40;;;;;;;;;;;30.40;80.80;;;29.32;39.20;96143.94;10486698;28;2317;-79
2021/08/13 16:55:43;;;;;;;;;;;30.20;81.20;;;29.15;39.98;96150.97;10476157;28;2944;-77
2021/08/13 17:00:46;;;;;;;;;;;30.00;82.10;;;29.02;40.70;96147.72;10492871;28;2289;-78
2021/08/13 17:05:49;;;;;;;;;;;29.90;82.60;;;28.88;41.75;96141.22;10500774;28;2353;-79
2021/08/13 17:10:52;;;;;;;;;;;29.80;83.50;;;28.78;41.98;96151.06;10498712;28;2352;-78
2021/08/13 17:15:55;;;;;;;;;;;29.60;84.00;;;28.72;42.65;96152.56;10489348;28;2225;-79
2021/08/13 17:20:57;;;;;;;;;;;29.50;84.80;;;28.60;43.09;96150.88;10484176;28;2428;-77
2021/08/13 17:26:00;;;;;;;;;;;29.40;85.70;;;28.51;43.52;96156.75;10502352;28;2286;-77
2021/08/13 17:31:03;;;;;;;;;;;29.40;86.10;;;28.38;44.49;96152.66;10508967;28;2308;-79
2021/08/13 17:36:06;;;;;;;;;;;29.30;87.00;;;28.33;44.43;96155.78;10541179;28;2367;-78
2021/08/13 17:41:08;;;;;;;;;;;29.10;87.60;;;28.22;45.06;96163.13;10540289;28;2321;-79
2021/08/13 17:46:11;;;;;;;;;;;29.10;88.20;;;28.06;45.39;96168.06;10524924;28;2327;-78
2021/08/13 17:51:14;;;;;;;;;;;28.90;88.00;;;27.83;46.05;96163.47;10521595;28;2325;-79
2021/08/13 17:56:16;;;;;;;;;;;28.80;88.90;;;27.60;47.02;96171.81;10536417;28;1995;-79
2021/08/13 18:01:19;;;;;;;;;;;28.60;89.80;;;27.60;47.21;96182.06;10527980;28;2282;-78
2021/08/13 18:06:23;;;;;;;;;;;28.50;90.40;;;27.40;48.25;96176.66;10526055;28;2322;-79
2021/08/13 18:11:25;;;;;;;;;;;28.40;91.20;;;27.29;48.48;96175.72;10515800;28;2285;-78
2021/08/13 18:16:29;;;;;;;;;;;28.20;92.00;;;27.06;49.78;96183.25;10531535;28;2267;-78
2021/08/13 18:21:33;;;;;;;;;;;28.00;93.00;;;26.88;50.12;96178.22;10534470;28;2209;-78
2021/08/13 18:26:36;;;;;;;;;;;27.90;93.00;;;26.64;50.88;96184.88;10510387;28;2050;-78
2021/08/13 18:31:38;;;;;;;;;;;27.70;93.90;;;26.42;51.97;96198.69;10492295;28;2252;-78
2021/08/13 18:36:41;;;;;;;;;;;27.50;94.80;;;26.23;52.87;96204.97;10501903;28;2383;-77
2021/08/13 18:41:44;;;;;;;;;;;27.30;95.80;;;26.13;53.17;96209.09;10488948;28;2264;-78
2021/08/13 18:46:47;;;;;;;;;;;27.20;96.70;;;25.96;53.93;96220.56;10486851;28;2305;-78
2021/08/13 18:51:50;;;;;;;;;;;27.00;97.50;;;25.77;54.73;96215.88;10498621;28;2321;-80
2021/08/13 18:56:53;;;;;;;;;;;26.80;97.80;;;25.52;55.77;96224.34;10488221;28;3019;-81
2021/08/13 19:01:56;;;;;;;;;;;26.60;98.90;;;25.37;56.75;96233.41;10510191;28;2485;-79
2021/08/13 19:06:59;;;;;;;;;;;26.40;99.90;;;25.18;57.54;96236.91;10513032;28;2308;-82
2021/08/13 19:12:02;;;;;;;;;;;26.20;99.90;;;25.07;57.58;96263.38;10514821;28;2267;-80
2021/08/13 19:17:04;;;;;;;;;;;26.10;99.90;;;24.95;58.41;96260.66;10516260;28;2332;-79
2021/08/13 19:22:07;;;;;;;;;;;26.00;99.90;;;24.89;58.38;96259.34;10498673;28;2480;-78
2021/08/13 19:27:10;;;;;;;;;;;25.80;99.90;;;24.77;58.85;96263.75;10477956;28;2416;-76
2021/08/13 19:32:12;;;;;;;;;;;25.80;99.90;;;24.70;58.81;96263.56;10482697;28;2368;-77
2021/08/13 19:37:15;;;;;;;;;;;25.60;99.90;;;24.60;59.14;96272.31;10479583;28;2370;-78
2021/08/13 19:42:18;;;;;;;;;;;25.60;99.90;;;24.45;59.76;96270.34;10501086;28;2063;-78
2021/08/13 19:47:22;;;;;;;;;;;25.50;99.90;;;24.35;60.31;96276.34;10495756;28;2288;-78
2021/08/13 19:52:25;;;;;;;;;;;25.40;99.90;;;24.31;60.91;96280.91;10473596;28;2392;-78
2021/08/13 19:57:28;;;;;;;;;;;25.30;99.90;;;24.28;60.98;96285.94;10519527;28;3186;-79
2021/08/13 20:02:30;;;;;;;;;;;25.30;99.90;;;24.26;61.17;96280.00;10530780;28;2280;-78
2021/08/13 20:07:33;;;;;;;;;;;25.20;99.90;;;24.20;61.67;96280.59;10514929;28;2272;-78
2021/08/13 20:12:36;;;;;;;;;;;25.10;99.90;;;24.14;61.72;96280.06;10528398;28;2277;-78
2021/08/13 20:17:39;;;;;;;;;;;25.00;99.90;;;24.04;62.32;96266.81;10519271;28;2281;-80
2021/08/13 20:22:41;;;;;;;;;;;25.00;99.90;;;23.99;62.43;96269.81;10536402;28;2281;-78
2021/08/13 20:27:44;;;;;;;;;;;25.00;99.90;;;23.89;62.78;96268.34;10534728;28;2329;-77
2021/08/13 20:32:47;;;;;;;;;;;24.80;99.90;;;23.84;63.20;96273.28;10521723;28;2117;-76
2021/08/13 20:37:51;;;;;;;;;;;24.80;99.90;;;23.75;64.18;96281.66;10534807;28;2011;-78
2021/08/13 20:42:53;;;;;;;;;;;24.70;99.90;;;23.70;64.29;96285.44;10532399;28;2440;-79
2021/08/13 20:47:56;;;;;;;;;;;24.70;99.90;;;23.65;64.94;96276.63;10526472;28;2202;-79
2021/08/13 20:53:01;;;;;;;;;;;24.60;99.90;;;23.58;65.22;96276.38;10519824;28;2389;-78
2021/08/13 20:58:04;;;;;;;;;;;24.60;99.90;;;23.54;65.62;96276.28;10537753;28;1700;-80
2021/08/13 21:03:06;;;;;;;;;;;24.40;99.90;;;23.46;66.26;96269.75;10525820;28;1915;-78
2021/08/13 21:08:10;;;;;;;;;;;24.40;99.90;;;23.46;66.33;96271.69;10524554;28;2493;-77
2021/08/13 21:13:12;;;;;;;;;;;24.40;99.90;;;23.39;66.87;96268.72;10535969;28;1651;-78
2021/08/13 21:18:15;;;;;;;;;;;24.30;99.90;;;23.34;67.24;96268.97;10540649;28;1912;-79
2021/08/13 21:23:17;;;;;;;;;;;24.20;99.90;;;23.26;67.52;96275.38;10536058;28;1890;-79
2021/08/13 21:28:20;;;;;;;;;;;24.20;99.90;;;23.14;68.08;96268.72;10513528;28;1902;-78
2021/08/13 21:33:23;;;;;;;;;;;24.10;99.90;;;23.09;68.52;96273.63;10534416;28;2336;-78
2021/08/13 21:38:25;;;;;;;;;;;24.00;99.90;;;23.02;68.72;96285.16;10517381;28;2198;-78
2021/08/13 21:43:35;;;;;;;;;;;24.00;99.90;;;22.82;69.78;96278.59;10497059;28;2460;-78
2021/08/13 21:48:37;;;;;;;;;;;23.90;99.90;;;22.71;70.53;96282.13;10516390;28;2474;-78
2021/08/13 21:53:40;;;;;;;;;;;23.80;99.90;;;22.63;70.69;96287.34;10538305;28;1895;-78
2021/08/13 21:58:43;;;;;;;;;;;23.60;99.90;;;22.60;71.09;96282.56;10513948;28;1869;-77
2021/08/13 22:03:45;;;;;;;;;;;23.60;99.90;;;22.58;71.44;96282.09;10503396;28;2514;-77
2021/08/13 22:08:48;;;;;;;;;;;23.50;99.90;;;22.63;71.40;96281.88;10502412;28;3056;-77
2021/08/13 22:13:51;;;;;;;;;;;23.50;99.90;;;22.58;71.57;96282.09;10500950;28;1902;-77
2021/08/13 22:18:54;;;;;;;;;;;23.50;99.90;;;22.52;72.19;96288.94;10507280;28;1980;-77
2021/08/13 22:23:56;;;;;;;;;;;23.50;99.90;;;22.59;72.03;96286.44;10501269;28;2482;-78
2021/08/13 22:28:59;;;;;;;;;;;23.40;99.90;;;22.64;71.94;96282.69;10501757;28;2490;-79
2021/08/13 22:34:02;;;;;;;;;;;23.50;99.90;;;22.55;72.25;96291.00;10498673;28;2472;-78
2021/08/13 22:39:04;;;;;;;;;;;23.50;99.90;;;22.60;72.12;96282.56;10505085;28;2523;-78
2021/08/13 22:44:07;;;;;;;;;;;23.50;99.90;;;22.57;72.45;96287.91;10500926;28;2471;-78
2021/08/13 22:49:10;;;;;;;;;;;23.40;99.90;;;22.51;72.63;96287.31;10496508;28;2415;-78
2021/08/13 22:54:12;;;;;;;;;;;23.40;99.90;;;22.48;72.86;96288.00;10499779;28;2549;-78
2021/08/13 22:59:15;;;;;;;;;;;23.40;99.90;;;22.48;72.91;96296.22;10492697;28;2451;-78
2021/08/13 23:04:18;;;;;;;;;;;23.40;99.90;;;22.44;73.13;96295.28;10495186;28;2486;-78
2021/08/13 23:09:20;;;;;;;;;;;23.40;99.90;;;22.33;73.58;96294.09;10490141;28;2641;-78
2021/08/13 23:14:23;;;;;;;;;;;23.20;99.90;;;22.31;74.24;96307.34;10494057;28;2431;-77